Time;durP1;ratioP1;P1;durP2;ratioP2;P2;SDS_P1;SDS_P2;PMS_P1;PMS_P2;Temp;Humidity;BMP_temperature;BMP_pressure;BME280_temperature;BME280_humidity;BME280_pressure;Samples;Min_cycle;Max_cycle;Signal;HPM_P1;HPM_P2
2021/11/22 00:00:19;;;;;;;4.80;1.48;;;;;;;8.13;57.49;101561.44;4846964;29;20561;-91
2021/11/22 00:02:46;;;;;;;3.25;1.40;;;;;;;8.29;57.73;101554.72;4849553;29;20033;-92
2021/11/22 00:05:12;;;;;;;7.20;1.63;;;;;;;8.30;57.65;101558.16;4851762;29;20076;-91
2021/11/22 00:07:37;;;;;;;3.42;1.60;;;;;;;8.30;57.46;101561.63;4848123;29;20545;-91
2021/11/22 00:10:04;;;;;;;7.05;2.08;;;;;;;8.28;57.66;101554.75;4845164;29;20032;-91
2021/11/22 00:12:33;;;;;;;6.40;1.38;;;;;;;8.37;58.19;101567.44;4848430;29;20033;-92
2021/11/22 00:14:58;;;;;;;3.47;1.65;;;;;;;8.30;58.22;101553.78;4850611;29;20239;-92
2021/11/22 00:17:24;;;;;;;4.43;1.23;;;;;;;8.39;58.23;101552.53;4852234;29;20197;-92
2021/11/22 00:19:49;;;;;;;9.68;1.67;;;;;;;8.30;58.06;101558.16;4847101;29;20030;-91
2021/11/22 00:22:15;;;;;;;7.07;1.67;;;;;;;8.34;57.96;101554.50;4850368;29;20030;-92
2021/11/22 00:24:40;;;;;;;6.13;1.98;;;;;;;8.29;58.53;101552.09;4854511;29;20078;-91
2021/11/22 00:27:06;;;;;;;5.03;1.70;;;;;;;8.30;58.04;101561.63;4853484;29;20432;-92
2021/11/22 00:29:31;;;;;;;5.07;1.70;;;;;;;8.45;58.18;101561.94;4854104;29;20081;-91
2021/11/22 00:31:57;;;;;;;4.90;1.88;;;;;;;8.49;58.09;101566.13;4849148;29;20062;-92
2021/11/22 00:34:23;;;;;;;6.00;2.05;;;;;;;8.38;58.03;101565.72;4850540;29;20030;-92
2021/11/22 00:36:48;;;;;;;7.28;3.20;;;;;;;8.39;57.98;101570.03;4853067;29;20098;-91
2021/11/22 00:39:14;;;;;;;7.22;2.10;;;;;;;8.45;57.78;101575.03;4851919;29;20037;-92
2021/11/22 00:41:40;;;;;;;7.75;1.63;;;;;;;8.37;58.24;101574.47;4851682;29;20040;-92
2021/11/22 00:44:05;;;;;;;11.68;3.13;;;;;;;8.40;57.98;101583.03;4849338;29;20041;-91
2021/11/22 00:46:31;;;;;;;5.63;2.35;;;;;;;8.41;57.93;101578.66;4851437;29;20033;-92
2021/11/22 00:48:56;;;;;;;6.00;2.03;;;;;;;8.25;58.41;101581.88;4855081;29;20055;-92
2021/11/22 00:51:21;;;;;;;4.90;1.75;;;;;;;8.23;57.40;101586.31;4850444;29;20362;-92
2021/11/22 00:53:47;;;;;;;8.60;2.25;;;;;;;8.19;58.05;101589.97;4852817;29;20049;-92
2021/11/22 00:56:16;;;;;;;6.63;2.20;;;;;;;8.22;58.61;101600.34;4851155;29;20029;-91
2021/11/22 00:58:42;;;;;;;10.52;2.78;;;;;;;8.12;58.08;101596.38;4851085;29;20223;-91
2021/11/22 01:01:08;;;;;;;6.07;2.00;;;;;;;8.11;58.41;101599.88;4847378;29;20056;-91
2021/11/22 01:03:33;;;;;;;3.10;2.03;;;;;;;8.11;58.75;101599.88;4853262;29;20610;-92
2021/11/22 01:05:58;;;;;;;5.53;2.30;;;;;;;7.91;59.07;101600.66;4853672;29;20070;-92
2021/11/22 01:08:24;;;;;;;7.40;2.13;;;;;;;8.14;58.76;101612.88;4850781;29;20030;-91
2021/11/22 01:10:49;;;;;;;9.40;2.35;;;;;;;7.94;58.85;101616.25;4851530;29;20037;-91
2021/11/22 01:13:15;;;;;;;7.10;2.15;;;;;;;8.08;58.60;101619.19;4851710;29;20034;-92
2021/11/22 01:15:40;;;;;;;5.93;2.00;;;;;;;8.12;58.35;101630.38;4847245;29;20489;-92
2021/11/22 01:18:06;;;;;;;7.63;2.20;;;;;;;8.11;58.37;101633.91;4843204;29;20075;-91
2021/11/22 01:20:33;;;;;;;8.05;1.98;;;;;;;8.18;58.43;101639.75;4841644;29;20109;-91
2021/11/22 01:23:08;;;;;;;7.70;2.40;;;;;;;8.09;58.88;101643.56;4845248;29;20034;-91
2021/11/22 01:25:35;;;;;;;6.22;2.35;;;;;;;7.97;58.49;101644.03;4853388;29;20074;-92
2021/11/22 01:28:01;;;;;;;5.82;2.42;;;;;;;8.01;58.04;101650.84;4852002;29;20037;-92
2021/11/22 01:30:26;;;;;;;7.10;2.47;;;;;;;8.01;58.82;101640.38;4849525;29;20038;-91
2021/11/22 01:32:52;;;;;;;6.05;2.55;;;;;;;7.95;58.99;101637.06;4853506;29;20029;-92
2021/11/22 01:35:18;;;;;;;6.65;2.45;;;;;;;8.00;59.05;101649.13;4848516;29;20065;-91
2021/11/22 01:37:44;;;;;;;4.35;2.38;;;;;;;7.89;58.66;101653.00;4850475;29;20362;-91
2021/11/22 01:40:12;;;;;;;6.38;2.45;;;;;;;8.05;58.29;101650.66;4847188;29;20524;-91
2021/11/22 01:42:38;;;;;;;6.72;2.80;;;;;;;7.78;59.62;101660.41;4845203;29;20045;-92
2021/11/22 01:45:09;;;;;;;5.78;2.78;;;;;;;7.84;59.47;101660.19;4854294;29;20037;-92
2021/11/22 01:47:35;;;;;;;4.22;2.25;;;;;;;8.14;58.62;101652.09;4848486;29;20025;-91
2021/11/22 01:50:01;;;;;;;7.50;2.58;;;;;;;8.00;58.93;101657.84;4849615;29;20438;-92
2021/11/22 01:52:27;;;;;;;5.30;2.50;;;;;;;7.92;59.20;101663.38;4849906;29;20025;-91
2021/11/22 01:54:52;;;;;;;8.40;2.55;;;;;;;7.97;58.72;101659.72;4847849;29;20074;-92
2021/11/22 01:57:18;;;;;;;4.78;2.63;;;;;;;7.94;59.16;101663.31;4850049;29;20046;-92
2021/11/22 01:59:44;;;;;;;5.75;2.47;;;;;;;8.00;58.46;101662.22;4846890;29;20501;-92
2021/11/22 02:02:09;;;;;;;6.20;2.75;;;;;;;8.05;58.70;101671.59;4851794;29;20044;-91
2021/11/22 02:04:35;;;;;;;10.30;2.72;;;;;;;8.04;58.95;101666.44;4847410;29;20055;-91
2021/11/22 02:07:00;;;;;;;8.50;2.15;;;;;;;7.97;59.13;101680.66;4845565;29;20018;-92
2021/11/22 02:09:26;;;;;;;7.25;3.00;;;;;;;8.00;59.73;101673.53;4849597;29;20082;-92
2021/11/22 02:11:51;;;;;;;4.50;2.70;;;;;;;8.03;59.32;101680.41;4846499;29;20369;-91
2021/11/22 02:14:16;;;;;;;5.40;2.83;;;;;;;7.97;58.72;101675.41;4848512;29;20036;-91
2021/11/22 02:16:42;;;;;;;8.48;3.10;;;;;;;7.92;59.51;101684.28;4847481;29;20057;-92
2021/11/22 02:19:07;;;;;;;5.47;3.00;;;;;;;7.91;58.83;101682.56;4849873;29;20061;-92
2021/11/22 02:21:33;;;;;;;8.00;3.08;;;;;;;7.85;58.70;101688.03;4851312;29;20506;-91
2021/11/22 02:23:58;;;;;;;9.65;3.35;;;;;;;7.78;58.92;101683.94;4851190;29;20565;-91
2021/11/22 02:26:24;;;;;;;5.32;2.90;;;;;;;7.85;58.87;101688.03;4847368;29;20377;-92
2021/11/22 02:28:49;;;;;;;7.88;3.42;;;;;;;7.69;59.78;101682.50;4852666;29;20445;-91
2021/11/22 02:31:15;;;;;;;7.65;3.90;;;;;;;7.80;59.37;101686.47;4848196;29;20430;-92
2021/11/22 02:33:41;;;;;;;5.85;3.20;;;;;;;7.27;59.63;101680.47;4851333;29;20426;-92
2021/11/22 02:36:06;;;;;;;5.90;3.17;;;;;;;7.56;59.68;101681.19;4850823;29;20026;-91
2021/11/22 02:38:37;;;;;;;6.75;3.25;;;;;;;7.70;59.80;101688.56;4846358;29;20491;-91
2021/11/22 02:41:05;;;;;;;6.40;3.13;;;;;;;7.68;60.04;101687.75;4848364;29;20078;-91
2021/11/22 02:43:33;;;;;;;5.88;3.17;;;;;;;7.73;59.56;101688.47;4850490;29;20374;-91
2021/11/22 02:45:59;;;;;;;4.05;2.70;;;;;;;7.69;60.25;101689.47;4849122;29;20022;-91
2021/11/22 02:48:24;;;;;;;4.75;2.75;;;;;;;7.70;59.85;101691.19;4849136;29;20041;-91
2021/11/22 02:50:50;;;;;;;6.38;2.92;;;;;;;7.70;59.72;101699.91;4849186;29;20113;-91
2021/11/22 02:53:16;;;;;;;7.25;3.00;;;;;;;7.74;59.45;101692.78;4850408;29;20037;-91
2021/11/22 02:55:41;;;;;;;6.65;3.17;;;;;;;7.81;59.95;101709.97;4846543;29;20484;-91
2021/11/22 02:58:07;;;;;;;6.57;3.42;;;;;;;7.74;59.91;101696.25;4848498;29;20025;-91
2021/11/22 03:00:35;;;;;;;9.95;2.90;;;;;;;7.56;59.99;101702.13;4847943;29;20446;-92
2021/11/22 03:03:01;;;;;;;8.75;3.30;;;;;;;7.84;59.80;101712.47;4841528;29;20096;-92
2021/11/22 03:05:26;;;;;;;6.15;2.97;;;;;;;7.73;60.40;101709.38;4841628;29;20489;-91
2021/11/22 03:07:54;;;;;;;5.57;2.72;;;;;;;7.92;59.85;101701.75;4841862;29;20472;-91
2021/11/22 03:10:21;;;;;;;4.78;2.72;;;;;;;7.75;60.07;101697.94;4840107;29;20068;-91
2021/11/22 03:12:48;;;;;;;7.55;3.10;;;;;;;7.89;59.87;101702.69;4841647;29;20033;-91
2021/11/22 03:15:17;;;;;;;8.18;2.83;;;;;;;7.97;59.32;101723.34;4841688;29;20045;-91
2021/11/22 03:17:43;;;;;;;6.53;2.30;;;;;;;8.00;59.05;101717.13;4841424;29;20037;-92
2021/11/22 03:20:12;;;;;;;6.75;3.05;;;;;;;7.97;59.61;101714.66;4841390;29;20490;-92
2021/11/22 03:22:37;;;;;;;6.55;3.08;;;;;;;7.93;60.02;101711.28;4841537;29;20034;-91
2021/11/22 03:25:05;;;;;;;6.90;2.63;;;;;;;7.83;60.17;101713.38;4841431;29;20037;-91
2021/11/22 03:27:30;;;;;;;4.95;2.72;;;;;;;7.80;59.53;101721.34;4840975;29;20109;-92
2021/11/22 03:29:57;;;;;;;7.38;2.92;;;;;;;7.93;59.36;101724.34;4841462;29;20050;-92
2021/11/22 03:32:22;;;;;;;8.23;2.80;;;;;;;7.91;60.00;101731.41;4841254;29;20034;-92
2021/11/22 03:34:48;;;;;;;8.07;2.95;;;;;;;7.96;59.62;101732.09;4841221;29;20069;-92
2021/11/22 03:37:15;;;;;;;3.80;2.40;;;;;;;8.07;59.28;101724.72;4841532;29;20022;-91
2021/11/22 03:39:45;;;;;;;5.15;2.45;;;;;;;8.06;59.07;101737.88;4841272;29;20058;-91
2021/11/22 03:42:15;;;;;;;6.72;2.35;;;;;;;8.09;59.05;101732.50;4840951;29;20099;-91
2021/11/22 03:44:40;;;;;;;12.25;3.17;;;;;;;8.03;58.46;101744.03;4840799;29;20042;-91
2021/11/22 03:47:06;;;;;;;5.53;2.30;;;;;;;7.74;60.10;101742.44;4837757;29;20385;-92
2021/11/22 03:49:33;;;;;;;10.13;2.92;;;;;;;7.89;59.48;101741.91;4840954;29;20102;-91
2021/11/22 03:52:00;;;;;;;8.77;2.80;;;;;;;8.02;59.43;101752.81;4841140;29;20486;-90
2021/11/22 03:54:25;;;;;;;10.50;2.50;;;;;;;8.14;59.45;101751.53;4840970;29;20038;-91
2021/11/22 03:56:51;;;;;;;3.10;2.33;;;;;;;8.14;59.14;101756.75;4841138;29;20030;-91
2021/11/22 03:59:16;;;;;;;8.65;2.75;;;;;;;8.05;59.49;101757.06;4841101;29;20069;-91
2021/11/22 04:01:42;;;;;;;6.68;2.50;;;;;;;8.06;59.53;101764.03;4840857;29;20570;-91
2021/11/22 04:04:07;;;;;;;11.70;3.10;;;;;;;8.00;59.81;101769.44;4840945;29;20026;-91
2021/11/22 04:06:33;;;;;;;5.25;2.40;;;;;;;8.16;59.30;101770.63;4841091;29;20034;-91
2021/11/22 04:08:58;;;;;;;6.50;2.35;;;;;;;8.09;59.17;101769.13;4841098;29;20045;-91
2021/11/22 04:11:24;;;;;;;8.68;2.78;;;;;;;8.05;58.37;101759.69;4841110;29;20026;-91
2021/11/22 04:13:50;;;;;;;10.20;3.47;;;;;;;7.90;59.00;101774.19;4840746;29;20456;-92
2021/11/22 04:16:16;;;;;;;4.80;2.10;;;;;;;8.09;59.67;101779.59;4840496;29;20034;-91
2021/11/22 04:18:43;;;;;;;7.40;2.70;;;;;;;8.14;58.89;101778.53;4840957;29;20058;-91
2021/11/22 04:21:10;;;;;;;8.52;2.03;;;;;;;8.25;58.80;101779.91;4840945;29;20026;-91
2021/11/22 04:23:36;;;;;;;4.00;2.40;;;;;;;8.15;58.83;101784.59;4839599;29;20026;-91
2021/11/22 04:26:02;;;;;;;6.10;2.80;;;;;;;8.07;58.42;101797.94;4840838;29;20037;-91
2021/11/22 04:28:28;;;;;;;10.50;2.15;;;;;;;8.05;58.85;101778.00;4840846;29;20606;-91
2021/11/22 04:30:53;;;;;;;5.55;2.33;;;;;;;8.05;58.81;101789.31;4840875;29;20121;-91
2021/11/22 04:33:18;;;;;;;8.25;2.20;;;;;;;7.84;59.99;101780.47;4840549;29;20037;-92
2021/11/22 04:35:44;;;;;;;8.13;2.47;;;;;;;7.75;59.71;101796.47;4839554;29;20034;-91
2021/11/22 04:38:09;;;;;;;9.93;2.67;;;;;;;7.99;59.46;101794.75;4840653;29;20030;-91
2021/11/22 04:40:35;;;;;;;5.32;2.42;;;;;;;8.05;59.52;101794.53;4840762;29;20034;-90
2021/11/22 04:43:00;;;;;;;6.30;2.10;;;;;;;8.13;59.12;101809.97;4840615;29;20101;-90
2021/11/22 04:45:30;;;;;;;6.50;2.88;;;;;;;8.15;59.28;101810.75;4840737;29;20042;-91
2021/11/22 04:47:58;;;;;;;11.48;2.38;;;;;;;8.12;59.09;101805.66;4840762;29;20026;-91
2021/11/22 04:50:23;;;;;;;9.40;2.30;;;;;;;8.09;59.18;101805.75;4839975;29;20489;-92
2021/11/22 04:52:50;;;;;;;9.63;2.53;;;;;;;8.18;59.44;101815.06;4840755;29;20030;-91
2021/11/22 04:55:18;;;;;;;7.93;2.33;;;;;;;8.17;59.50;101814.19;4840644;29;20058;-91
2021/11/22 04:57:45;;;;;;;7.22;2.65;;;;;;;7.96;59.72;101818.41;4840463;29;20508;-91
2021/11/22 05:00:12;;;;;;;6.82;2.42;;;;;;;8.11;59.34;101804.78;4843757;29;20064;-91
2021/11/22 05:02:39;;;;;;;10.10;2.35;;;;;;;8.19;58.99;101812.38;4843809;29;20044;-92
2021/11/22 05:05:09;;;;;;;5.32;2.17;;;;;;;8.14;59.63;101809.91;4843324;29;20030;-92
2021/11/22 05:07:36;;;;;;;7.72;2.30;;;;;;;8.28;59.02;101812.03;4843894;29;20553;-91
2021/11/22 05:10:02;;;;;;;6.25;1.98;;;;;;;8.25;58.96;101812.13;4843732;29;20477;-91
2021/11/22 05:12:27;;;;;;;6.72;2.10;;;;;;;8.33;58.87;101817.97;4843753;29;20492;-91
2021/11/22 05:14:53;;;;;;;11.20;2.50;;;;;;;8.28;58.24;101812.03;4843756;29;20030;-91
2021/11/22 05:17:18;;;;;;;7.57;2.17;;;;;;;8.34;59.02;101817.06;4843841;29;20037;-91
2021/11/22 05:19:43;;;;;;;8.00;1.80;;;;;;;8.18;59.10;101815.91;4843350;29;20174;-91
2021/11/22 05:22:11;;;;;;;9.32;2.22;;;;;;;8.42;58.52;101813.34;4843980;29;20508;-91
2021/11/22 05:24:37;;;;;;;10.05;2.97;;;;;;;8.50;57.97;101811.31;4843500;29;20041;-91
2021/11/22 05:27:04;;;;;;;6.70;2.55;;;;;;;8.36;58.91;101818.78;4842238;29;20034;-91
2021/11/22 05:29:30;;;;;;;9.23;2.70;;;;;;;8.44;58.08;101827.22;4843455;29;20473;-91
2021/11/22 05:31:55;;;;;;;7.35;2.00;;;;;;;8.24;59.10;101830.53;4842207;29;20040;-91
2021/11/22 05:34:20;;;;;;;7.18;1.88;;;;;;;8.34;58.43;101826.69;4841713;29;20121;-91
2021/11/22 05:36:46;;;;;;;13.20;3.72;;;;;;;8.41;58.61;101840.38;4843310;29;20103;-91
2021/11/22 05:39:12;;;;;;;5.28;1.90;;;;;;;8.44;58.69;101830.69;4843279;29;20026;-91
2021/11/22 05:41:39;;;;;;;7.07;2.20;;;;;;;8.30;59.18;101844.25;4843330;29;20040;-91
2021/11/22 05:44:04;;;;;;;8.60;1.73;;;;;;;8.40;58.37;101839.53;4841921;29;20034;-91
2021/11/22 05:46:30;;;;;;;10.38;2.58;;;;;;;8.33;58.62;101835.41;4843186;29;20492;-91
2021/11/22 05:48:55;;;;;;;3.03;1.50;;;;;;;8.37;58.38;101839.63;4842715;29;20038;-91
2021/11/22 05:51:21;;;;;;;11.38;2.17;;;;;;;8.19;58.99;101843.75;4842902;29;20026;-91
2021/11/22 05:53:48;;;;;;;9.52;2.15;;;;;;;8.30;58.65;101849.47;4842854;29;20037;-92
2021/11/22 05:56:16;;;;;;;9.10;1.88;;;;;;;8.21;59.09;101857.63;4843068;29;20061;-91
2021/11/22 05:58:41;;;;;;;5.53;2.35;;;;;;;8.37;58.84;101854.50;4841607;29;20420;-92
2021/11/22 06:01:07;;;;;;;10.05;2.65;;;;;;;8.11;59.66;101854.50;4841630;29;20026;-91
2021/11/22 06:03:33;;;;;;;7.55;2.92;;;;;;;8.24;58.88;101862.78;4842353;29;20057;-91
2021/11/22 06:05:58;;;;;;;11.90;2.42;;;;;;;8.30;58.76;101878.25;4842772;29;20030;-91
2021/11/22 06:08:24;;;;;;;6.35;1.83;;;;;;;8.38;58.45;101869.31;4842892;29;20030;-91
2021/11/22 06:10:51;;;;;;;9.38;2.22;;;;;;;8.28;58.79;101880.09;4841715;29;20046;-91
2021/11/22 06:13:17;;;;;;;12.45;1.80;;;;;;;8.25;58.94;101876.72;4842493;29;20037;-91
2021/11/22 06:15:44;;;;;;;12.50;2.33;;;;;;;8.27;59.46;101891.47;4841347;29;20450;-91
2021/11/22 06:18:10;;;;;;;7.80;1.85;;;;;;;8.30;58.82;101873.03;4842659;29;20026;-92
2021/11/22 06:20:35;;;;;;;8.23;1.83;;;;;;;8.22;59.11;101884.69;4842088;29;20030;-91
2021/11/22 06:23:01;;;;;;;8.50;2.63;;;;;;;8.20;59.65;101887.34;4825519;29;20557;-92
2021/11/22 06:25:27;;;;;;;5.15;2.40;;;;;;;8.30;59.13;101880.88;4842538;29;20033;-91
2021/11/22 06:27:52;;;;;;;11.13;1.73;;;;;;;8.23;59.14;101879.38;4842468;29;20502;-91
2021/11/22 06:30:18;;;;;;;10.13;1.90;;;;;;;8.29;59.08;101887.03;4842422;29;20034;-91
2021/11/22 06:32:43;;;;;;;8.65;2.15;;;;;;;8.21;59.38;101893.44;4842300;29;20473;-91
2021/11/22 06:35:09;;;;;;;5.60;1.80;;;;;;;8.06;59.62;101879.97;4842322;29;20042;-91
2021/11/22 06:37:35;;;;;;;4.00;1.70;;;;;;;8.23;58.50;101886.38;4841955;29;20033;-91
2021/11/22 06:40:03;;;;;;;7.40;2.10;;;;;;;8.17;59.16;101884.81;4842272;29;20045;-91
2021/11/22 06:42:29;;;;;;;5.78;2.00;;;;;;;8.05;59.80;101890.47;4842066;29;20062;-91
2021/11/22 06:44:54;;;;;;;5.53;1.77;;;;;;;8.14;59.01;101891.03;4842248;29;20113;-91
2021/11/22 06:47:20;;;;;;;7.28;2.10;;;;;;;8.21;59.20;101896.88;4842103;29;20178;-91
2021/11/22 06:49:45;;;;;;;6.03;1.98;;;;;;;8.20;59.18;101907.44;4842001;29;20057;-91
2021/11/22 06:52:13;;;;;;;4.60;2.05;;;;;;;8.11;59.19;101908.59;4841503;29;20068;-91
2021/11/22 06:54:39;;;;;;;5.43;2.20;;;;;;;8.15;59.27;101907.56;4840408;29;20378;-91
2021/11/22 06:57:04;;;;;;;5.13;1.73;;;;;;;8.09;59.63;101915.63;4841550;29;20037;-91
2021/11/22 06:59:30;;;;;;;6.75;1.92;;;;;;;8.11;59.77;101919.88;4842024;29;20481;-91
2021/11/22 07:01:56;;;;;;;9.02;2.05;;;;;;;8.14;59.47;101922.41;4841972;29;20054;-91
2021/11/22 07:04:21;;;;;;;7.72;2.85;;;;;;;8.11;58.53;101929.50;4840385;29;20123;-91
2021/11/22 07:06:47;;;;;;;9.98;2.28;;;;;;;8.10;59.05;101938.28;4840327;29;20504;-91
2021/11/22 07:09:12;;;;;;;13.82;3.60;;;;;;;8.11;59.48;101932.13;4841462;29;20037;-91
2021/11/22 07:11:38;;;;;;;4.72;2.13;;;;;;;8.05;58.65;101940.19;4841713;29;20401;-91
2021/11/22 07:14:05;;;;;;;9.82;2.53;;;;;;;7.82;60.14;101948.75;4841559;29;20030;-90
2021/11/22 07:16:31;;;;;;;7.43;1.88;;;;;;;8.00;59.29;101944.69;4841591;29;20022;-91
2021/11/22 07:18:57;;;;;;;5.18;2.28;;;;;;;8.07;59.39;101957.53;4841552;29;20085;-91
2021/11/22 07:21:22;;;;;;;12.93;2.53;;;;;;;8.05;58.83;101956.72;4841398;29;20029;-91
2021/11/22 07:23:48;;;;;;;5.30;1.77;;;;;;;8.01;59.41;101965.56;4841237;29;20026;-91
2021/11/22 07:26:13;;;;;;;4.55;2.10;;;;;;;7.98;59.84;101978.78;4841434;29;20477;-91
2021/11/22 07:28:39;;;;;;;5.53;2.17;;;;;;;8.02;59.47;101969.06;4841572;29;20519;-91
2021/11/22 07:31:04;;;;;;;4.50;1.85;;;;;;;8.05;59.16;101975.03;4841503;29;20113;-91
2021/11/22 07:33:30;;;;;;;6.43;1.85;;;;;;;8.02;58.56;101980.38;4841459;29;20029;-91
2021/11/22 07:35:56;;;;;;;8.40;1.80;;;;;;;8.03;59.89;101982.06;4841440;29;20038;-91
2021/11/22 07:38:21;;;;;;;9.23;2.05;;;;;;;7.99;58.76;101987.47;4840978;29;20102;-91
2021/11/22 07:40:47;;;;;;;5.78;1.80;;;;;;;8.06;59.39;101992.47;4841178;29;20022;-91
2021/11/22 07:43:14;;;;;;;7.05;1.83;;;;;;;8.02;59.04;101997.84;4841469;29;20079;-91
2021/11/22 07:45:40;;;;;;;9.38;1.98;;;;;;;7.98;59.55;102002.31;4841312;29;20036;-91
2021/11/22 07:48:05;;;;;;;9.68;2.15;;;;;;;7.93;59.66;102009.44;4840014;29;20030;-91
2021/11/22 07:50:31;;;;;;;5.43;1.98;;;;;;;8.02;60.15;102010.94;4841364;29;20037;-91
2021/11/22 07:52:57;;;;;;;8.10;2.42;;;;;;;8.08;59.65;102013.34;4841144;29;20038;-92
2021/11/22 07:55:23;;;;;;;12.20;2.00;;;;;;;8.19;59.29;102019.06;4840666;29;20045;-92
2021/11/22 07:57:50;;;;;;;7.72;2.72;;;;;;;8.20;60.14;102022.56;4841084;29;20044;-92
2021/11/22 08:00:17;;;;;;;5.40;1.80;;;;;;;8.21;59.72;102032.09;4841096;29;20465;-90
2021/11/22 08:02:43;;;;;;;5.40;2.00;;;;;;;8.19;60.27;102036.53;4844443;29;20042;-89
2021/11/22 08:05:10;;;;;;;4.72;1.60;;;;;;;8.26;59.09;102028.44;4859280;29;20028;-90
2021/11/22 08:07:37;;;;;;;6.63;1.98;;;;;;;8.33;59.19;102036.94;4859405;29;20037;-90
2021/11/22 08:12:51;;;;;;;5.68;2.10;;;;;;;8.31;58.93;102041.38;4841046;29;20125;-90
2021/11/22 08:15:17;;;;;;;11.55;2.30;;;;;;;8.24;59.77;102047.72;4843916;29;20076;-90
2021/11/22 08:17:43;;;;;;;6.65;1.92;;;;;;;8.44;58.94;102040.09;4839558;29;20030;-90
2021/11/22 08:20:14;;;;;;;6.40;2.13;;;;;;;8.52;59.28;102045.09;4850132;29;20040;-90
2021/11/22 08:22:39;;;;;;;8.40;2.03;;;;;;;8.59;58.54;102050.97;4847969;29;20034;-89
2021/11/22 08:25:06;;;;;;;4.05;1.60;;;;;;;8.58;58.24;102050.13;4844154;29;20149;-89
2021/11/22 08:27:33;;;;;;;9.25;2.30;;;;;;;8.52;58.89;102040.69;4842647;29;20039;-94
2021/11/22 08:30:04;;;;;;;9.35;2.25;;;;;;;8.44;59.33;102044.50;4842345;29;20034;-90
2021/11/22 08:32:29;;;;;;;13.13;3.25;;;;;;;8.62;58.66;102043.88;4840399;29;20034;-92
2021/11/22 08:34:55;;;;;;;8.90;2.38;;;;;;;8.66;59.18;102048.09;4844750;29;20053;-92
2021/11/22 08:37:20;;;;;;;9.38;1.98;;;;;;;8.65;59.68;102050.75;4846003;29;20034;-91
2021/11/22 08:39:46;;;;;;;5.63;2.00;;;;;;;8.80;58.64;102049.41;4849926;29;20489;-93
2021/11/22 08:42:11;;;;;;;14.00;2.20;;;;;;;8.45;59.56;102059.28;4849968;29;20093;-92
2021/11/22 08:44:37;;;;;;;4.70;1.55;;;;;;;8.84;58.97;102051.00;4825800;29;20030;-92
2021/11/22 08:47:04;;;;;;;7.55;1.52;;;;;;;9.09;58.54;102044.00;4824724;29;20034;-92
2021/11/22 08:49:30;;;;;;;7.78;2.15;;;;;;;9.04;58.48;102053.78;4829511;29;20030;-92
2021/11/22 08:51:56;;;;;;;9.32;1.80;;;;;;;9.05;58.23;102055.50;4844332;29;20069;-93
2021/11/22 08:54:22;;;;;;;4.18;2.00;;;;;;;9.23;58.01;102055.75;4844005;29;20037;-92
2021/11/22 08:56:48;;;;;;;7.32;1.70;;;;;;;9.30;57.76;102059.84;4844167;29;20049;-93
2021/11/22 08:59:15;;;;;;;7.05;2.15;;;;;;;9.25;58.29;102056.56;4844313;29;20030;-93
2021/11/22 09:01:41;;;;;;;6.15;1.73;;;;;;;9.32;57.93;102058.91;4842838;29;20034;-95
2021/11/22 09:04:06;;;;;;;9.85;2.65;;;;;;;9.26;57.78;102056.50;4842616;29;20026;-94
2021/11/22 09:06:35;;;;;;;6.75;1.83;;;;;;;9.24;57.97;102065.31;4841387;29;20159;-93
2021/11/22 09:09:03;;;;;;;3.67;1.55;;;;;;;9.52;57.40;102063.41;4842474;29;20038;-94
2021/11/22 09:11:28;;;;;;;11.80;1.90;;;;;;;9.40;57.56;102058.63;4846378;29;20073;-92
2021/11/22 09:13:54;;;;;;;7.35;2.28;;;;;;;9.55;57.34;102066.84;4843705;29;20030;-93
2021/11/22 09:16:26;;;;;;;8.93;2.03;;;;;;;9.58;57.57;102069.31;4843758;29;20473;-93
2021/11/22 09:18:52;;;;;;;7.30;2.13;;;;;;;9.59;57.19;102061.41;4842365;29;20029;-93
2021/11/22 09:21:17;;;;;;;8.57;1.65;;;;;;;9.75;56.97;102072.19;4842974;29;20052;-92
2021/11/22 09:23:42;;;;;;;9.48;1.92;;;;;;;9.77;57.18;102075.59;4843345;29;20112;-93
2021/11/22 09:26:08;;;;;;;8.80;1.90;;;;;;;9.77;56.90;102067.72;4843074;29;20082;-93
2021/11/22 09:28:34;;;;;;;5.10;1.63;;;;;;;9.94;57.10;102077.59;4843442;29;20108;-93
2021/11/22 09:31:00;;;;;;;6.78;1.92;;;;;;;10.19;56.14;102072.25;4841737;29;20041;-93
2021/11/22 09:33:25;;;;;;;13.48;2.03;;;;;;;10.16;55.70;102069.72;4835487;29;20043;-94
2021/11/22 09:35:50;;;;;;;7.97;1.88;;;;;;;10.16;56.40;102074.97;4841355;29;20034;-94
2021/11/22 09:38:16;;;;;;;9.10;2.05;;;;;;;10.30;55.82;102083.19;4842050;29;20030;-93
2021/11/22 09:40:42;;;;;;;10.45;3.72;;;;;;;10.23;56.17;102084.31;4841142;29;20026;-92
2021/11/22 09:43:07;;;;;;;6.15;2.10;;;;;;;10.47;55.99;102086.91;4842139;29;20025;-94
2021/11/22 09:45:33;;;;;;;7.07;1.80;;;;;;;10.42;56.62;102088.88;4842056;29;20108;-93
2021/11/22 09:48:00;;;;;;;10.02;2.00;;;;;;;10.33;56.36;102095.34;4845907;29;20029;-94
2021/11/22 09:50:29;;;;;;;11.73;1.95;;;;;;;10.65;56.01;102074.81;4854004;29;20477;-93
2021/11/22 09:52:54;;;;;;;9.82;2.33;;;;;;;11.08;55.38;102081.72;4842963;29;20030;-94
2021/11/22 09:55:21;;;;;;;7.07;1.63;;;;;;;11.20;54.94;102085.59;4842559;29;20026;-93
2021/11/22 09:57:47;;;;;;;7.30;1.67;;;;;;;11.65;54.07;102094.97;4842666;29;20034;-93
2021/11/22 10:00:13;;;;;;;8.32;1.35;;;;;;;12.25;52.59;102089.56;4842998;29;20033;-93
2021/11/22 10:02:51;;;;;;;7.72;1.98;;;;;;;13.44;50.82;102105.56;4842795;29;20038;-93
2021/11/22 10:05:27;;;;;;;10.63;2.10;;;;;;;14.25;48.68;102102.91;4844515;29;20033;-92
2021/11/22 10:08:02;;;;;;;8.27;1.42;;;;;;;15.63;46.49;102095.69;4855092;29;20025;-94
2021/11/22 10:10:33;;;;;;;11.07;1.73;;;;;;;16.37;44.27;102098.97;4854804;29;20090;-93
2021/11/22 10:13:00;;;;;;;6.82;1.50;;;;;;;17.05;41.71;102096.16;4848290;29;20034;-93
2021/11/22 10:15:30;;;;;;;12.95;1.70;;;;;;;17.82;40.35;102095.25;4844265;29;20037;-93
2021/11/22 10:17:55;;;;;;;4.32;1.15;;;;;;;19.00;39.74;102112.31;4856381;29;20117;-94
2021/11/22 10:20:21;;;;;;;8.27;2.00;;;;;;;19.38;37.49;102112.00;4845061;29;20457;-93
2021/11/22 10:23:12;;;;;;;4.72;1.48;;;;;;;19.44;38.08;102120.47;4840137;29;20113;-93
2021/11/22 10:25:42;;;;;;;6.05;1.63;;;;;;;19.41;37.91;102111.75;4853531;29;20061;-94
2021/11/22 10:28:24;;;;;;;8.52;1.58;;;;;;;19.30;37.42;102114.41;4839928;29;20034;-91
2021/11/22 10:30:51;;;;;;;;;;;;;;;19.22;37.35;102106.19;4842461;29;20028;-92
2021/11/22 10:33:20;;;;;;;9.45;1.52;;;;;;;18.26;38.59;102122.25;4840627;29;19921;-92
2021/11/22 10:35:46;;;;;;;5.45;1.42;;;;;;;17.70;39.84;102110.28;4842919;29;20025;-91
2021/11/22 10:38:21;;;;;;;11.52;1.95;;;;;;;17.03;40.81;102121.13;4842875;29;20052;-91
2021/11/22 10:40:58;;;;;;;4.30;1.10;;;;;;;16.95;41.25;102099.56;4841672;29;20029;-92
2021/11/22 10:43:34;;;;;;;6.43;1.27;;;;;;;16.65;42.22;102103.31;4840838;29;20028;-91
2021/11/22 10:46:00;;;;;;;8.20;1.70;;;;;;;16.85;41.70;102113.44;4841847;29;20188;-92
2021/11/22 10:48:28;;;;;;;6.07;1.30;;;;;;;17.64;40.56;102105.41;4840328;29;20128;-91
2021/11/22 10:51:08;;;;;;;6.88;1.40;;;;;;;17.59;40.70;102103.03;4840108;29;20033;-92
2021/11/22 10:53:43;;;;;;;7.43;1.98;;;;;;;18.31;40.09;102106.84;4839161;29;20508;-91
2021/11/22 10:56:20;;;;;;;8.57;1.73;;;;;;;18.60;38.84;102105.50;4845212;29;20042;-90
2021/11/22 10:58:57;;;;;;;4.10;1.50;;;;;;;19.09;38.15;102108.09;4839889;29;20401;-92
2021/11/22 11:01:31;;;;;;;10.65;1.83;;;;;;;18.49;39.20;102092.16;4850300;29;20397;-92
2021/11/22 11:03:58;;;;;;;7.65;1.67;;;;;;;19.13;38.77;102096.22;4860132;29;20520;-91
2021/11/22 11:06:42;;;;;;;7.45;2.17;;;;;;;19.89;37.51;102093.84;4860101;29;20485;-91
2021/11/22 11:09:16;;;;;;;8.68;1.58;;;;;;;20.12;36.80;102092.81;4859960;29;20061;-91
2021/11/22 11:11:43;;;;;;;6.10;1.48;;;;;;;20.60;36.39;102095.06;4849055;29;20025;-93
2021/11/22 11:14:11;;;;;;;5.47;2.35;;;;;;;20.96;35.61;102098.28;4853039;29;20045;-91
2021/11/22 11:16:39;;;;;;;5.03;1.73;;;;;;;20.79;35.52;102091.72;4841826;29;20389;-91
2021/11/22 11:19:07;;;;;;;6.95;1.20;;;;;;;20.69;35.85;102097.94;4846010;29;20304;-91
2021/11/22 11:21:36;;;;;;;3.78;1.20;;;;;;;20.95;35.01;102096.59;4846922;29;20061;-92
2021/11/22 11:24:03;;;;;;;4.90;1.50;;;;;;;20.46;35.73;102092.69;4851833;29;20121;-91
2021/11/22 11:26:28;;;;;;;6.20;1.80;;;;;;;19.97;36.68;102091.41;4847246;29;20416;-91
2021/11/22 11:28:55;;;;;;;7.20;1.27;;;;;;;20.73;35.90;102083.34;4845741;29;20038;-92
2021/11/22 11:31:21;;;;;;;7.13;1.45;;;;;;;20.96;35.58;102084.09;4838973;29;20030;-91